Time;durP1;ratioP1;P1;durP2;ratioP2;P2;SDS_P1;SDS_P2;PMS_P1;PMS_P2;Temp;Humidity;BMP_temperature;BMP_pressure;BME280_temperature;BME280_humidity;BME280_pressure;Samples;Min_cycle;Max_cycle;Signal;HPM_P1;HPM_P2
2023/03/26 00:00:58;;;;;;;11.10;2.30;;;;;;;;;;5008248;28;20065;-78
2023/03/26 00:03:25;;;;;;;10.52;2.33;;;;;;;;;;4986155;28;20021;-77
2023/03/26 00:06:06;;;;;;;9.52;2.15;;;;;;;;;;4999967;28;20489;-78
2023/03/26 00:08:32;;;;;;;8.30;2.35;;;;;;;;;;5005218;28;20022;-77
2023/03/26 00:10:57;;;;;;;9.45;2.13;;;;;;;;;;4993881;28;20080;-78
2023/03/26 00:13:23;;;;;;;12.10;2.45;;;;;;;;;;4989297;28;20494;-77
2023/03/26 00:15:48;;;;;;;14.82;2.97;;;;;;;;;;4993013;28;20028;-77
2023/03/26 00:18:14;;;;;;;9.90;2.05;;;;;;;;;;5006615;28;20116;-78
2023/03/26 00:20:40;;;;;;;13.95;2.92;;;;;;;;;;4994203;28;20026;-77
2023/03/26 00:23:06;;;;;;;15.27;2.70;;;;;;;;;;4989018;28;20955;-77
2023/03/26 00:25:33;;;;;;;14.82;2.95;;;;;;;;;;4988125;28;20029;-77
2023/03/26 00:27:59;;;;;;;9.10;2.60;;;;;;;;;;5010903;28;20029;-77
2023/03/26 00:30:25;;;;;;;16.65;3.13;;;;;;;;;;4992038;28;20029;-77
2023/03/26 00:32:50;;;;;;;10.88;2.42;;;;;;;;;;5007544;28;20382;-78
2023/03/26 00:35:16;;;;;;;13.75;3.03;;;;;;;;;;5006729;28;20999;-78
2023/03/26 00:37:42;;;;;;;16.13;3.55;;;;;;;;;;4991420;28;20030;-78
2023/03/26 00:40:09;;;;;;;15.07;2.92;;;;;;;;;;5006013;28;20044;-77
2023/03/26 00:42:36;;;;;;;11.93;2.58;;;;;;;;;;5009358;28;20041;-77
2023/03/26 00:45:02;;;;;;;13.43;2.80;;;;;;;;;;4990776;28;20533;-77
2023/03/26 00:47:28;;;;;;;15.10;2.55;;;;;;;;;;5006710;28;20025;-77
2023/03/26 00:49:54;;;;;;;10.35;2.63;;;;;;;;;;5006616;28;20087;-77
2023/03/26 00:52:20;;;;;;;13.52;3.10;;;;;;;;;;4993423;28;20045;-77
2023/03/26 00:54:55;;;;;;;11.32;2.85;;;;;;;;;;5011361;28;20025;-78
2023/03/26 00:57:21;;;;;;;12.43;2.88;;;;;;;;;;5006740;28;20080;-77
2023/03/26 00:59:48;;;;;;;11.77;2.47;;;;;;;;;;4984982;28;20026;-78
2023/03/26 01:02:16;;;;;;;15.20;3.47;;;;;;;;;;5005511;28;20532;-77
2023/03/26 01:04:47;;;;;;;13.23;2.42;;;;;;;;;;4999764;28;20033;-78
2023/03/26 01:07:20;;;;;;;14.93;2.30;;;;;;;;;;4986355;28;20083;-78
2023/03/26 01:09:51;;;;;;;14.43;2.65;;;;;;;;;;4990478;28;20018;-77
2023/03/26 01:12:22;;;;;;;17.25;3.13;;;;;;;;;;4987920;28;20459;-78
2023/03/26 01:14:49;;;;;;;12.95;2.78;;;;;;;;;;5011950;28;20026;-77
2023/03/26 01:17:16;;;;;;;14.80;3.10;;;;;;;;;;5006219;28;20092;-77
2023/03/26 01:19:47;;;;;;;15.25;2.95;;;;;;;;;;5008888;28;20136;-77
2023/03/26 01:22:16;;;;;;;17.55;2.90;;;;;;;;;;4988757;28;20084;-78
2023/03/26 01:24:44;;;;;;;11.05;2.65;;;;;;;;;;4991422;28;20026;-78
2023/03/26 01:27:17;;;;;;;9.23;2.38;;;;;;;;;;5011329;28;20482;-78
2023/03/26 01:29:56;;;;;;;12.37;2.63;;;;;;;;;;5005513;28;20044;-78
2023/03/26 01:32:30;;;;;;;16.05;3.13;;;;;;;;;;5003441;28;20315;-77
2023/03/26 01:35:13;;;;;;;12.40;2.80;;;;;;;;;;4994222;28;20022;-78
2023/03/26 01:38:09;;;;;;;14.40;2.85;;;;;;;;;;4993489;28;20030;-78
2023/03/26 01:41:03;;;;;;;17.00;3.10;;;;;;;;;;4989381;28;20513;-78
2023/03/26 01:43:28;;;;;;;15.63;3.30;;;;;;;;;;4957262;28;20096;-77
2023/03/26 01:45:55;;;;;;;14.57;2.85;;;;;;;;;;5008857;28;20057;-77
2023/03/26 01:48:28;;;;;;;12.75;2.72;;;;;;;;;;4985393;28;20075;-78
2023/03/26 01:50:55;;;;;;;12.85;3.25;;;;;;;;;;4993949;28;20156;-78
2023/03/26 01:53:20;;;;;;;18.42;3.25;;;;;;;;;;4993156;28;20046;-77
2023/03/26 01:56:11;;;;;;;15.73;3.20;;;;;;;;;;4993066;28;20022;-78
2023/03/26 01:58:43;;;;;;;15.27;2.97;;;;;;;;;;5005237;28;20490;-78
2023/03/26 02:01:23;;;;;;;19.45;3.42;;;;;;;;;;4993342;28;20022;-77
2023/03/26 02:04:06;;;;;;;11.38;2.97;;;;;;;;;;5005926;28;20058;-77
2023/03/26 02:07:04;;;;;;;12.57;2.47;;;;;;;;;;5013427;28;20472;-77
2023/03/26 02:09:33;;;;;;;14.38;3.28;;;;;;;;;;4965993;28;20563;-77
2023/03/26 02:12:02;;;;;;;13.15;2.70;;;;;;;;;;4987499;28;20031;-77
2023/03/26 02:14:29;;;;;;;8.85;2.35;;;;;;;;;;5011755;28;20030;-78
2023/03/26 02:16:55;;;;;;;9.10;2.67;;;;;;;;;;4993355;28;20088;-77
2023/03/26 02:19:23;;;;;;;14.95;3.10;;;;;;;;;;4995846;28;20088;-78
2023/03/26 02:21:50;;;;;;;15.15;3.00;;;;;;;;;;5014585;28;20378;-77
2023/03/26 02:24:17;;;;;;;14.00;2.78;;;;;;;;;;4993442;28;20465;-78
2023/03/26 02:26:43;;;;;;;11.80;2.97;;;;;;;;;;4997349;28;20091;-77
2023/03/26 02:29:08;;;;;;;11.18;2.85;;;;;;;;;;5007958;28;20065;-78
2023/03/26 02:31:34;;;;;;;12.65;2.40;;;;;;;;;;5018193;28;20031;-77
2023/03/26 02:34:00;;;;;;;12.80;2.88;;;;;;;;;;5005431;28;20037;-78
2023/03/26 02:36:28;;;;;;;8.85;2.58;;;;;;;;;;5014832;28;20084;-77
2023/03/26 02:38:56;;;;;;;15.15;2.88;;;;;;;;;;5006768;28;20108;-78
2023/03/26 02:41:22;;;;;;;10.38;2.60;;;;;;;;;;4984263;28;20452;-78
2023/03/26 02:43:47;;;;;;;10.77;2.78;;;;;;;;;;5000778;28;20036;-77
2023/03/26 02:46:13;;;;;;;9.77;2.33;;;;;;;;;;4990523;28;20032;-77
2023/03/26 02:48:40;;;;;;;15.32;3.10;;;;;;;;;;4972736;28;20064;-77
2023/03/26 02:51:06;;;;;;;13.70;2.22;;;;;;;;;;5008128;28;20025;-77
2023/03/26 02:53:32;;;;;;;12.50;3.15;;;;;;;;;;5002685;28;20043;-78
2023/03/26 02:55:59;;;;;;;9.15;2.03;;;;;;;;;;4991168;28;20343;-78
2023/03/26 02:58:25;;;;;;;14.40;2.78;;;;;;;;;;5007005;28;20036;-78
2023/03/26 03:00:53;;;;;;;14.32;3.13;;;;;;;;;;5008368;28;20513;-77
2023/03/26 03:03:23;;;;;;;10.48;2.25;;;;;;;;;;5001917;28;20034;-77
2023/03/26 03:05:53;;;;;;;14.77;2.38;;;;;;;;;;5004174;28;20034;-77
2023/03/26 03:08:21;;;;;;;8.68;2.08;;;;;;;;;;4989711;28;20038;-78
2023/03/26 03:11:10;;;;;;;12.02;2.17;;;;;;;;;;5002035;28;20381;-78
2023/03/26 03:13:36;;;;;;;11.30;2.60;;;;;;;;;;4989904;28;20049;-77
2023/03/26 03:16:01;;;;;;;9.90;2.25;;;;;;;;;;5006723;28;20766;-78
2023/03/26 03:18:27;;;;;;;14.30;2.63;;;;;;;;;;5007317;28;20079;-77
2023/03/26 03:20:53;;;;;;;9.98;1.63;;;;;;;;;;5003832;28;20037;-78
2023/03/26 03:23:19;;;;;;;12.63;1.98;;;;;;;;;;4987041;28;20675;-78
2023/03/26 03:25:44;;;;;;;12.98;2.72;;;;;;;;;;5005645;28;20141;-78
2023/03/26 03:28:10;;;;;;;11.82;2.50;;;;;;;;;;5005743;28;20108;-77
2023/03/26 03:30:36;;;;;;;9.45;2.10;;;;;;;;;;5003083;28;20036;-78
2023/03/26 03:33:02;;;;;;;8.93;1.83;;;;;;;;;;4983929;28;20033;-78
2023/03/26 03:35:28;;;;;;;9.80;2.20;;;;;;;;;;5009641;28;20022;-78
2023/03/26 03:37:57;;;;;;;10.80;1.95;;;;;;;;;;5006282;28;20077;-77
2023/03/26 03:40:23;;;;;;;10.65;2.10;;;;;;;;;;4989151;28;20112;-77
2023/03/26 03:42:49;;;;;;;7.30;1.85;;;;;;;;;;4992138;28;20124;-77
2023/03/26 03:45:14;;;;;;;10.80;2.08;;;;;;;;;;5010405;28;20044;-78
2023/03/26 03:47:39;;;;;;;12.55;2.05;;;;;;;;;;5008569;28;20036;-77
2023/03/26 03:50:06;;;;;;;8.55;1.83;;;;;;;;;;5007755;28;20389;-78
2023/03/26 03:52:31;;;;;;;14.20;2.95;;;;;;;;;;4990857;28;20022;-78
2023/03/26 03:54:59;;;;;;;10.25;2.08;;;;;;;;;;4991064;28;20460;-77
2023/03/26 03:57:25;;;;;;;10.52;2.15;;;;;;;;;;5004272;28;20037;-78
2023/03/26 03:59:50;;;;;;;14.40;2.20;;;;;;;;;;5009094;28;20038;-77
2023/03/26 04:02:29;;;;;;;13.52;2.08;;;;;;;;;;4999554;28;20034;-78
2023/03/26 04:04:56;;;;;;;8.85;1.77;;;;;;;;;;4993388;28;20033;-77
2023/03/26 04:07:22;;;;;;;13.60;2.38;;;;;;;;;;4988316;28;20022;-77
2023/03/26 04:09:48;;;;;;;11.02;2.00;;;;;;;;;;5010894;28;20072;-78
2023/03/26 04:12:14;;;;;;;8.90;2.00;;;;;;;;;;5009834;28;20030;-77
2023/03/26 04:14:39;;;;;;;6.97;1.60;;;;;;;;;;5008447;28;20029;-78
2023/03/26 04:17:05;;;;;;;10.77;1.90;;;;;;;;;;4991676;28;20112;-77
2023/03/26 04:19:30;;;;;;;14.30;2.13;;;;;;;;;;4992240;28;20474;-77
2023/03/26 04:22:01;;;;;;;13.20;2.17;;;;;;;;;;4998156;28;20541;-77
2023/03/26 04:24:32;;;;;;;11.90;2.15;;;;;;;;;;5004609;28;20584;-77
2023/03/26 04:27:02;;;;;;;9.10;1.80;;;;;;;;;;4992628;28;20401;-78
2023/03/26 04:29:37;;;;;;;10.10;2.00;;;;;;;;;;5012110;28;20440;-77
2023/03/26 04:32:05;;;;;;;11.25;2.05;;;;;;;;;;5007775;28;20028;-78
2023/03/26 04:34:32;;;;;;;9.63;2.25;;;;;;;;;;4990119;28;20034;-78
2023/03/26 04:37:01;;;;;;;9.57;2.10;;;;;;;;;;4994610;28;20028;-77
2023/03/26 04:39:29;;;;;;;10.82;2.30;;;;;;;;;;5008657;28;20036;-78
2023/03/26 04:41:55;;;;;;;8.68;1.92;;;;;;;;;;4988014;28;20025;-77
2023/03/26 04:44:21;;;;;;;10.40;2.20;;;;;;;;;;5000376;28;20030;-78
2023/03/26 04:46:47;;;;;;;7.72;1.98;;;;;;;;;;5005810;28;20111;-78
2023/03/26 04:49:13;;;;;;;11.02;2.17;;;;;;;;;;5006660;28;20038;-77
2023/03/26 04:51:45;;;;;;;12.05;1.92;;;;;;;;;;4988787;28;20092;-77
2023/03/26 04:54:12;;;;;;;6.95;1.63;;;;;;;;;;5006080;28;20117;-77
2023/03/26 04:56:51;;;;;;;8.93;1.95;;;;;;;;;;4991150;28;20116;-77
2023/03/26 04:59:24;;;;;;;6.47;1.48;;;;;;;;;;5003283;28;20911;-77
2023/03/26 05:01:50;;;;;;;;;;;;;;;;;;5007444;28;20045;-77
2023/03/26 05:04:15;;;;;;;8.73;1.95;;;;;;;;;;4989133;28;20370;-77
2023/03/26 05:06:41;;;;;;;11.80;1.88;;;;;;;;;;4986204;28;20025;-77
2023/03/26 05:09:09;;;;;;;7.32;1.77;;;;;;;;;;5007581;28;20029;-77
2023/03/26 05:11:35;;;;;;;5.07;1.33;;;;;;;;;;4986170;28;20025;-78
2023/03/26 05:14:00;;;;;;;8.20;2.15;;;;;;;;;;5002627;28;20092;-78
2023/03/26 05:16:27;;;;;;;9.35;1.83;;;;;;;;;;4982747;28;20117;-78
2023/03/26 05:18:52;;;;;;;8.65;1.63;;;;;;;;;;4987605;28;20030;-77
2023/03/26 05:21:18;;;;;;;8.50;1.73;;;;;;;;;;4990734;28;20496;-78
2023/03/26 05:23:44;;;;;;;8.25;1.83;;;;;;;;;;4977654;28;20034;-78
2023/03/26 05:26:09;;;;;;;7.40;1.70;;;;;;;;;;5009152;28;20048;-78
2023/03/26 05:28:35;;;;;;;6.68;2.08;;;;;;;;;;4994233;28;20029;-77
2023/03/26 05:31:01;;;;;;;6.28;1.95;;;;;;;;;;5012757;28;20088;-77
2023/03/26 05:33:26;;;;;;;11.48;2.22;;;;;;;;;;4996685;28;20026;-77
2023/03/26 05:36:08;;;;;;;11.82;2.40;;;;;;;;;;5010494;28;20017;-78
2023/03/26 05:38:34;;;;;;;7.45;1.52;;;;;;;;;;4990983;28;20433;-78
2023/03/26 05:41:03;;;;;;;8.43;1.95;;;;;;;;;;5011908;28;20537;-77
2023/03/26 05:43:29;;;;;;;6.47;1.73;;;;;;;;;;4995093;28;20025;-77
2023/03/26 05:45:54;;;;;;;9.98;2.20;;;;;;;;;;4994220;28;20033;-78
2023/03/26 05:48:20;;;;;;;12.10;2.10;;;;;;;;;;5009891;28;20486;-77
2023/03/26 05:50:50;;;;;;;8.68;2.05;;;;;;;;;;4991606;28;20116;-78
2023/03/26 05:53:17;;;;;;;7.68;2.08;;;;;;;;;;5010982;28;20026;-77
2023/03/26 05:55:45;;;;;;;9.75;2.33;;;;;;;;;;4991257;28;20052;-77
2023/03/26 05:58:12;;;;;;;9.80;2.10;;;;;;;;;;5008945;28;20029;-77
2023/03/26 06:00:37;;;;;;;10.13;2.20;;;;;;;;;;5008704;28;20390;-78
2023/03/26 06:03:04;;;;;;;9.80;2.28;;;;;;;;;;5009029;28;20037;-78
2023/03/26 06:05:36;;;;;;;7.43;2.55;;;;;;;;;;4987970;28;20033;-77
2023/03/26 06:08:02;;;;;;;8.18;1.83;;;;;;;;;;5009108;28;20032;-77
2023/03/26 06:10:27;;;;;;;6.47;1.58;;;;;;;;;;5010065;28;20547;-77
2023/03/26 06:12:52;;;;;;;6.97;1.75;;;;;;;;;;4992818;28;20029;-78
2023/03/26 06:15:18;;;;;;;9.05;1.95;;;;;;;;;;5008047;28;20435;-78
2023/03/26 06:17:43;;;;;;;11.25;2.28;;;;;;;;;;4990239;28;20029;-78
2023/03/26 06:20:09;;;;;;;11.05;2.30;;;;;;;;;;5013753;28;20031;-78
2023/03/26 06:22:34;;;;;;;7.30;2.08;;;;;;;;;;5015250;28;20030;-77
2023/03/26 06:25:00;;;;;;;8.90;2.20;;;;;;;;;;5007521;28;20033;-78
2023/03/26 06:27:25;;;;;;;10.82;2.17;;;;;;;;;;4995265;28;20026;-78
2023/03/26 06:29:51;;;;;;;9.50;2.35;;;;;;;;;;5021064;28;20167;-78
2023/03/26 06:32:16;;;;;;;9.23;2.15;;;;;;;;;;4995694;28;20521;-78
2023/03/26 06:34:42;;;;;;;8.88;2.35;;;;;;;;;;4999410;28;20022;-78
2023/03/26 06:37:07;;;;;;;9.15;2.15;;;;;;;;;;5006072;28;20470;-78
2023/03/26 06:39:32;;;;;;;6.25;2.20;;;;;;;;;;4993397;28;20508;-78
2023/03/26 06:41:58;;;;;;;6.43;2.25;;;;;;;;;;5008789;28;20045;-78
2023/03/26 06:44:23;;;;;;;11.70;2.72;;;;;;;;;;5007989;28;20034;-78
2023/03/26 06:46:48;;;;;;;9.27;2.25;;;;;;;;;;5011888;28;20037;-78
2023/03/26 06:49:14;;;;;;;9.82;2.55;;;;;;;;;;5014714;28;20026;-78
2023/03/26 06:51:40;;;;;;;10.45;2.25;;;;;;;;;;5012872;28;20034;-78
2023/03/26 06:54:06;;;;;;;7.85;2.50;;;;;;;;;;5009134;28;20078;-78
2023/03/26 06:56:31;;;;;;;9.25;2.20;;;;;;;;;;4991611;28;20025;-78
2023/03/26 06:58:57;;;;;;;7.85;2.05;;;;;;;;;;4993282;28;20080;-78
2023/03/26 07:01:22;;;;;;;7.47;1.90;;;;;;;;;;5010068;28;20033;-78
2023/03/26 07:03:47;;;;;;;12.27;2.45;;;;;;;;;;5013960;28;20041;-78
2023/03/26 07:06:13;;;;;;;7.25;2.03;;;;;;;;;;4992305;28;20038;-78
2023/03/26 07:08:38;;;;;;;7.82;1.98;;;;;;;;;;4993591;28;20076;-78
2023/03/26 07:11:04;;;;;;;10.70;2.08;;;;;;;;;;5010135;28;20038;-78
2023/03/26 07:13:29;;;;;;;9.25;2.15;;;;;;;;;;4996027;28;20060;-78
2023/03/26 07:15:55;;;;;;;9.55;1.92;;;;;;;;;;5016557;28;20028;-78
2023/03/26 07:18:20;;;;;;;7.13;2.05;;;;;;;;;;4998326;28;20091;-78
2023/03/26 07:20:46;;;;;;;10.55;2.45;;;;;;;;;;4995391;28;20029;-78
2023/03/26 07:23:14;;;;;;;9.52;2.13;;;;;;;;;;4993891;28;20374;-78
2023/03/26 07:25:40;;;;;;;14.52;2.40;;;;;;;;;;4992262;28;20060;-78
2023/03/26 07:28:47;;;;;;;10.25;2.13;;;;;;;;;;5013182;28;20100;-78
2023/03/26 07:31:33;;;;;;;10.55;2.35;;;;;;;;;;4931814;29;20031;-78
2023/03/26 07:34:36;;;;;;;6.53;1.80;;;;;;;;;;4931486;29;20027;-78
2023/03/26 07:37:14;;;;;;;7.25;1.95;;;;;;;;;;4994265;28;20057;-78
2023/03/26 07:39:57;;;;;;;10.23;1.90;;;;;;;;;;5006552;28;20022;-78
2023/03/26 07:42:49;;;;;;;7.95;2.30;;;;;;;;;;5006822;28;20034;-78
2023/03/26 07:45:20;;;;;;;9.20;2.05;;;;;;;;;;4975144;28;20410;-78
2023/03/26 07:47:48;;;;;;;7.85;2.00;;;;;;;;;;4981626;28;20095;-78
2023/03/26 07:50:15;;;;;;;15.38;2.78;;;;;;;;;;5008627;28;20041;-78
2023/03/26 07:52:41;;;;;;;7.63;2.00;;;;;;;;;;5007434;28;20053;-78
2023/03/26 07:55:11;;;;;;;11.63;2.22;;;;;;;;;;4987321;28;20069;-78
2023/03/26 07:57:39;;;;;;;8.35;1.88;;;;;;;;;;5008791;28;20453;-78
2023/03/26 08:00:16;;;;;;;9.40;1.95;;;;;;;;;;4994935;28;20470;-78
2023/03/26 08:03:08;;;;;;;8.45;2.10;;;;;;;;;;5006307;28;20032;-78
2023/03/26 08:05:41;;;;;;;7.97;2.28;;;;;;;;;;5011296;28;20057;-79
2023/03/26 08:08:06;;;;;;;;;;;;;;;;;;5014214;28;20075;-79
2023/03/26 08:11:03;;;;;;;7.93;2.00;;;;;;;;;;4996383;28;19914;-79
2023/03/26 08:13:55;;;;;;;6.30;2.20;;;;;;;;;;5012077;28;20279;-79
2023/03/26 08:16:53;;;;;;;8.65;2.50;;;;;;;;;;4995422;28;20037;-79
2023/03/26 08:20:01;;;;;;;5.82;2.10;;;;;;;;;;5010189;28;20029;-79
2023/03/26 08:22:35;;;;;;;7.47;2.13;;;;;;;;;;4995591;28;20033;-79
2023/03/26 08:25:26;;;;;;;7.50;2.20;;;;;;;;;;4999438;28;20401;-78
2023/03/26 08:28:12;;;;;;;7.25;2.17;;;;;;;;;;5010482;28;20169;-79
2023/03/26 08:30:37;;;;;;;10.40;2.83;;;;;;;;;;5015013;28;20041;-79
2023/03/26 08:33:17;;;;;;;8.95;2.30;;;;;;;;;;4994851;28;20041;-79
2023/03/26 08:35:44;;;;;;;5.57;2.00;;;;;;;;;;4995942;28;20022;-79
2023/03/26 08:38:16;;;;;;;9.88;2.35;;;;;;;;;;4996244;28;20501;-79
2023/03/26 08:41:09;;;;;;;6.20;2.33;;;;;;;;;;5008711;28;20502;-79
2023/03/26 08:43:53;;;;;;;7.05;2.33;;;;;;;;;;5005525;28;20355;-78
2023/03/26 08:46:27;;;;;;;7.47;2.22;;;;;;;;;;4994986;28;20069;-79
2023/03/26 08:49:03;;;;;;;6.18;2.15;;;;;;;;;;5011200;28;20433;-78
2023/03/26 08:51:47;;;;;;;6.20;2.00;;;;;;;;;;5011190;28;20124;-79
2023/03/26 08:54:38;;;;;;;6.82;2.15;;;;;;;;;;5011941;28;20667;-79
2023/03/26 08:57:28;;;;;;;3.88;1.90;;;;;;;;;;5008772;28;20037;-78
2023/03/26 09:00:04;;;;;;;5.88;1.75;;;;;;;;;;4997559;28;20470;-79
2023/03/26 09:03:08;;;;;;;3.92;1.88;;;;;;;;;;5008359;28;20045;-79
2023/03/26 09:05:39;;;;;;;;;;;;;;;;;;4990919;28;20030;-79
2023/03/26 09:08:20;;;;;;;9.23;2.63;;;;;;;;;;4991002;28;19997;-79
2023/03/26 09:11:09;;;;;;;6.40;2.70;;;;;;;;;;5001006;28;20029;-79
2023/03/26 09:14:06;;;;;;;6.75;2.40;;;;;;;;;;4991236;28;20482;-79
2023/03/26 09:16:57;;;;;;;6.15;2.38;;;;;;;;;;5005316;28;20038;-78
2023/03/26 09:19:41;;;;;;;9.07;2.55;;;;;;;;;;4967732;28;20050;-79
2023/03/26 09:22:16;;;;;;;6.60;2.20;;;;;;;;;;4988064;28;20084;-79
2023/03/26 09:25:06;;;;;;;6.55;2.15;;;;;;;;;;4987816;28;20045;-79
2023/03/26 09:27:54;;;;;;;4.50;2.03;;;;;;;;;;4988525;28;20034;-79
2023/03/26 09:30:45;;;;;;;4.75;2.10;;;;;;;;;;5007011;28;20079;-79
2023/03/26 09:33:11;;;;;;;4.03;1.90;;;;;;;;;;5007226;28;20073;-79
2023/03/26 09:36:01;;;;;;;5.22;1.83;;;;;;;;;;5003470;28;20061;-78
2023/03/26 09:38:42;;;;;;;6.28;1.95;;;;;;;;;;5008550;28;20030;-79
2023/03/26 09:41:14;;;;;;;5.40;2.00;;;;;;;;;;5003121;28;20030;-79
2023/03/26 09:44:00;;;;;;;5.18;1.92;;;;;;;;;;5007955;28;20032;-79
2023/03/26 09:46:57;;;;;;;2.80;1.58;;;;;;;;;;4987261;28;20037;-79
2023/03/26 09:49:37;;;;;;;5.35;1.60;;;;;;;;;;5008532;28;20034;-79
2023/03/26 09:52:15;;;;;;;4.40;1.55;;;;;;;;;;5007730;28;20496;-79
2023/03/26 09:55:19;;;;;;;5.18;1.70;;;;;;;;;;5001623;28;20036;-79
2023/03/26 09:58:10;;;;;;;;;;;;;;;;;;5005378;28;20087;-79
2023/03/26 10:01:05;;;;;;;3.55;1.40;;;;;;;;;;4972384;28;19932;-79
2023/03/26 10:03:40;;;;;;;2.40;1.30;;;;;;;;;;5012404;28;20029;-80
2023/03/26 10:06:05;;;;;;;4.55;1.48;;;;;;;;;;4992441;28;20048;-79
2023/03/26 10:08:38;;;;;;;4.00;1.58;;;;;;;;;;4990901;28;20462;-79
2023/03/26 10:11:32;;;;;;;3.65;1.45;;;;;;;;;;4992996;28;20034;-79
2023/03/26 10:14:07;;;;;;;3.25;1.55;;;;;;;;;;5006924;28;20038;-79
2023/03/26 10:17:10;;;;;;;5.10;1.50;;;;;;;;;;5000985;28;20398;-79
2023/03/26 10:19:42;;;;;;;4.47;1.60;;;;;;;;;;5011388;28;20144;-79
2023/03/26 10:22:44;;;;;;;4.93;1.35;;;;;;;;;;5016603;28;20025;-79
2023/03/26 10:25:25;;;;;;;4.05;1.20;;;;;;;;;;5011167;28;20112;-79
2023/03/26 10:27:59;;;;;;;4.68;1.25;;;;;;;;;;4993210;28;20038;-79
2023/03/26 10:30:41;;;;;;;2.30;1.30;;;;;;;;;;5006182;28;20029;-80
2023/03/26 10:33:44;;;;;;;4.20;1.63;;;;;;;;;;5003359;28;20030;-79
2023/03/26 10:36:34;;;;;;;4.47;1.48;;;;;;;;;;4979237;28;20466;-80
2023/03/26 10:39:15;;;;;;;5.95;1.80;;;;;;;;;;5006220;28;20051;-80
2023/03/26 10:41:54;;;;;;;7.22;1.77;;;;;;;;;;5005668;28;20061;-80
2023/03/26 10:44:55;;;;;;;7.60;1.85;;;;;;;;;;4986166;28;20072;-79
2023/03/26 10:47:26;;;;;;;7.47;2.10;;;;;;;;;;4986737;28;20118;-80
2023/03/26 10:50:10;;;;;;;3.03;1.33;;;;;;;;;;4993750;28;20030;-80
2023/03/26 10:52:47;;;;;;;3.70;1.38;;;;;;;;;;4988229;28;20025;-79
2023/03/26 10:55:21;;;;;;;3.15;1.50;;;;;;;;;;5008279;28;20029;-80
2023/03/26 10:57:55;;;;;;;3.60;1.27;;;;;;;;;;4997148;28;20029;-79
2023/03/26 11:00:27;;;;;;;4.90;1.35;;;;;;;;;;5016547;28;20555;-79
2023/03/26 11:03:02;;;;;;;4.03;1.30;;;;;;;;;;5015106;28;20029;-79
2023/03/26 11:05:50;;;;;;;2.38;1.20;;;;;;;;;;5007592;28;20397;-79
2023/03/26 11:08:30;;;;;;;3.10;1.40;;;;;;;;;;5017591;28;20022;-79
2023/03/26 11:11:31;;;;;;;4.03;1.23;;;;;;;;;;5011015;28;20061;-79
2023/03/26 11:14:13;;;;;;;3.22;1.42;;;;;;;;;;4994431;28;20060;-79
2023/03/26 11:17:14;;;;;;;3.70;1.38;;;;;;;;;;4988071;28;20500;-80
2023/03/26 11:20:03;;;;;;;3.53;1.35;;;;;;;;;;5000214;28;20056;-80
2023/03/26 11:22:55;;;;;;;3.90;1.38;;;;;;;;;;4988222;28;20033;-79
2023/03/26 11:25:28;;;;;;;5.00;1.38;;;;;;;;;;4989416;28;20042;-80
2023/03/26 11:28:15;;;;;;;4.80;1.20;;;;;;;;;;4992655;28;20474;-80
2023/03/26 11:31:03;;;;;;;8.63;1.40;;;;;;;;;;4983205;28;20046;-79
2023/03/26 11:33:35;;;;;;;3.13;1.05;;;;;;;;;;5012243;28;20021;-79
2023/03/26 11:36:06;;;;;;;3.53;1.17;;;;;;;;;;4988913;28;20560;-80
2023/03/26 11:38:40;;;;;;;2.95;1.00;;;;;;;;;;4984306;28;20040;-79
2023/03/26 11:41:20;;;;;;;7.35;0.90;;;;;;;;;;4991932;28;20103;-80
2023/03/26 11:43:51;;;;;;;5.35;0.77;;;;;;;;;;5013896;28;20057;-80
2023/03/26 11:46:19;;;;;;;4.50;1.10;;;;;;;;;;4991101;28;20556;-80
2023/03/26 11:49:08;;;;;;;6.15;1.30;;;;;;;;;;5004833;28;20025;-79
2023/03/26 11:51:35;;;;;;;2.30;0.70;;;;;;;;;;4988830;28;20041;-80
2023/03/26 11:54:02;;;;;;;4.57;1.02;;;;;;;;;;5006740;28;20032;-80
2023/03/26 11:56:49;;;;;;;3.55;0.93;;;;;;;;;;4992133;28;20497;-80
2023/03/26 11:59:22;;;;;;;4.18;0.95;;;;;;;;;;4988008;28;20414;-80
2023/03/26 12:01:50;;;;;;;;;;;;;;;;;;4979648;28;20087;-80
2023/03/26 12:04:35;;;;;;;5.15;1.20;;;;;;;;;;4980525;28;19917;-80
2023/03/26 12:07:18;;;;;;;4.80;0.93;;;;;;;;;;4990932;28;20033;-80
2023/03/26 12:09:56;;;;;;;3.90;0.93;;;;;;;;;;4979126;28;20038;-80
2023/03/26 12:12:37;;;;;;;5.25;1.15;;;;;;;;;;4981738;28;20184;-80
2023/03/26 12:15:03;;;;;;;6.53;1.23;;;;;;;;;;4981698;28;20398;-80
2023/03/26 12:17:38;;;;;;;5.20;1.45;;;;;;;;;;4980120;28;20445;-80
2023/03/26 12:20:24;;;;;;;6.07;1.80;;;;;;;;;;5001501;28;20029;-81
2023/03/26 12:22:58;;;;;;;5.00;1.20;;;;;;;;;;4970110;28;20133;-80
2023/03/26 12:25:33;;;;;;;5.20;1.35;;;;;;;;;;4997980;28;20034;-81
2023/03/26 12:28:17;;;;;;;3.22;1.05;;;;;;;;;;4982811;28;20029;-79
2023/03/26 12:30:59;;;;;;;5.35;1.70;;;;;;;;;;4994143;28;20030;-80
2023/03/26 12:33:33;;;;;;;5.43;1.63;;;;;;;;;;4995443;28;20064;-80
2023/03/26 12:36:15;;;;;;;6.80;2.33;;;;;;;;;;4980016;28;20030;-80
2023/03/26 12:38:41;;;;;;;2.85;1.35;;;;;;;;;;4977667;28;20033;-80
2023/03/26 12:41:16;;;;;;;3.00;1.60;;;;;;;;;;4994344;28;20021;-80
2023/03/26 12:43:46;;;;;;;4.90;1.85;;;;;;;;;;4995373;28;20030;-79
2023/03/26 12:46:31;;;;;;;5.47;1.77;;;;;;;;;;4992167;28;20397;-80
2023/03/26 12:48:59;;;;;;;4.35;1.80;;;;;;;;;;4997373;28;20036;-81
2023/03/26 12:52:09;;;;;;;5.72;2.53;;;;;;;;;;4982923;28;20113;-78
2023/03/26 12:54:49;;;;;;;6.65;2.92;;;;;;;;;;4999543;28;20021;-77
2023/03/26 12:57:20;;;;;;;7.43;3.03;;;;;;;;;;4997135;28;20040;-77
2023/03/26 13:00:07;;;;;;;6.55;3.10;;;;;;;;;;4982187;28;20030;-79
2023/03/26 13:03:07;;;;;;;7.30;3.13;;;;;;;;;;4995214;28;20029;-77
2023/03/26 13:05:41;;;;;;;7.13;2.83;;;;;;;;;;5002037;28;20026;-79
2023/03/26 13:08:19;;;;;;;9.48;3.63;;;;;;;;;;4998153;28;20526;-77
2023/03/26 13:11:04;;;;;;;6.18;3.08;;;;;;;;;;4992126;28;20026;-76
2023/03/26 13:14:02;;;;;;;9.40;3.22;;;;;;;;;;5002087;28;20030;-78
2023/03/26 13:16:53;;;;;;;13.85;3.22;;;;;;;;;;5001205;28;20129;-76
2023/03/26 13:19:39;;;;;;;10.52;3.33;;;;;;;;;;4958965;28;20818;-79
2023/03/26 13:22:07;;;;;;;7.25;3.03;;;;;;;;;;5005579;28;20557;-78
2023/03/26 13:24:55;;;;;;;11.40;3.28;;;;;;;;;;4999242;28;20123;-79
2023/03/26 13:27:56;;;;;;;8.18;2.63;;;;;;;;;;4985292;28;20702;-77
2023/03/26 13:30:30;;;;;;;6.55;2.08;;;;;;;;;;4960787;28;20132;-77
2023/03/26 13:33:11;;;;;;;8.43;2.80;;;;;;;;;;4970675;28;20038;-76
2023/03/26 13:35:54;;;;;;;12.68;3.10;;;;;;;;;;4984863;28;20025;-77
2023/03/26 13:38:33;;;;;;;10.70;3.28;;;;;;;;;;4997580;28;20147;-79
2023/03/26 13:41:41;;;;;;;7.78;2.88;;;;;;;;;;4998212;28;20497;-77
2023/03/26 13:44:28;;;;;;;10.45;2.53;;;;;;;;;;4997047;28;20099;-80
2023/03/26 13:47:22;;;;;;;6.57;2.30;;;;;;;;;;4975853;28;20542;-77
2023/03/26 13:49:59;;;;;;;7.78;2.30;;;;;;;;;;4982182;28;21254;-78
2023/03/26 13:52:44;;;;;;;9.93;2.65;;;;;;;;;;4980836;28;20453;-77
2023/03/26 13:55:36;;;;;;;6.00;2.33;;;;;;;;;;4984953;28;20034;-77
2023/03/26 13:58:07;;;;;;;8.45;2.35;;;;;;;;;;5006031;28;20105;-78
2023/03/26 14:00:54;;;;;;;5.63;2.10;;;;;;;;;;5001632;28;20030;-77
2023/03/26 14:03:46;;;;;;;9.90;2.60;;;;;;;;;;5005733;28;20041;-76
2023/03/26 14:06:40;;;;;;;5.95;2.50;;;;;;;;;;5004094;28;20045;-79
2023/03/26 14:09:30;;;;;;;7.10;2.10;;;;;;;;;;5004880;28;20025;-77
2023/03/26 14:11:58;;;;;;;7.57;2.00;;;;;;;;;;5004109;28;20391;-77
2023/03/26 14:14:35;;;;;;;8.45;2.00;;;;;;;;;;4988106;28;20037;-79
2023/03/26 14:17:11;;;;;;;6.78;2.08;;;;;;;;;;4979794;28;20041;-78
2023/03/26 14:19:43;;;;;;;7.65;1.88;;;;;;;;;;5004881;28;20423;-78
2023/03/26 14:22:12;;;;;;;5.30;1.90;;;;;;;;;;4985369;28;20036;-78
2023/03/26 14:24:50;;;;;;;5.45;1.88;;;;;;;;;;5004225;28;20032;-77
2023/03/26 14:27:45;;;;;;;12.10;2.25;;;;;;;;;;5003518;28;20033;-80
2023/03/26 14:30:27;;;;;;;8.95;2.50;;;;;;;;;;5000103;28;20140;-77
2023/03/26 14:33:20;;;;;;;10.52;2.20;;;;;;;;;;5004803;28;20486;-78
2023/03/26 14:35:49;;;;;;;8.52;2.17;;;;;;;;;;4984052;28;20033;-77
2023/03/26 14:38:49;;;;;;;9.43;2.17;;;;;;;;;;5003779;28;20112;-77
2023/03/26 14:41:27;;;;;;;6.38;1.90;;;;;;;;;;4994199;28;20408;-79
2023/03/26 14:44:11;;;;;;;9.00;1.92;;;;;;;;;;5003596;28;20025;-79
2023/03/26 14:46:42;;;;;;;4.80;1.77;;;;;;;;;;5004059;28;20798;-80
2023/03/26 14:49:34;;;;;;;8.27;2.08;;;;;;;;;;5004242;28;20490;-77
2023/03/26 14:52:10;;;;;;;9.77;2.10;;;;;;;;;;5006223;28;20029;-78
2023/03/26 14:54:40;;;;;;;9.90;1.95;;;;;;;;;;5006088;28;20041;-79
2023/03/26 14:57:27;;;;;;;6.57;2.13;;;;;;;;;;4988859;28;20037;-76
2023/03/26 15:00:21;;;;;;;7.00;1.90;;;;;;;;;;5006615;28;20037;-77
2023/03/26 15:03:06;;;;;;;;;;;;;;;;;;4984227;28;20460;-76
2023/03/26 15:06:03;;;;;;;6.05;1.42;;;;;;;;;;5004196;28;19925;-78
2023/03/26 15:08:57;;;;;;;6.95;1.38;;;;;;;;;;5000225;28;20156;-77
2023/03/26 15:11:33;;;;;;;5.88;1.65;;;;;;;;;;5009626;28;20030;-78
2023/03/26 15:14:09;;;;;;;4.50;1.33;;;;;;;;;;5004168;28;20124;-77
2023/03/26 15:16:58;;;;;;;6.57;2.05;;;;;;;;;;5003283;28;20386;-77
2023/03/26 15:19:48;;;;;;;4.40;1.50;;;;;;;;;;5013499;28;20146;-77
2023/03/26 15:22:34;;;;;;;4.95;1.30;;;;;;;;;;5013696;28;20037;-79
2023/03/26 15:25:21;;;;;;;5.47;1.63;;;;;;;;;;4992614;28;20514;-78
2023/03/26 15:28:33;;;;;;;6.15;1.58;;;;;;;;;;4989154;28;20030;-78